Weather observations for the past three days for
Fayette County Airport
Imperial (Metric)
Date Time (edt) Wind (mph) Vis. (mi.) Weather Sky Cond. Temperature (ºF) Relative Humidity Wind Chill (°F) Heat Index (°F) Pressure Precipitation (in)
Air Dwpt 6 hour altimeter (in) sea level (mb) 1 hr 3 hr 6 hr
Max. Min.
07 21:15 SW 5 10.00 Fair CLR 48.2 35.6 62% 47 29.95 0.0
07 20:55 SW 3 10.00 Fair CLR 48.2 39.2 71% 29.95 0.0
07 20:35 SW 2 5.00 Fair with Haze CLR 51.8 33.8 50% 29.94 0.0
07 20:15 NW 5 10.00 Fair CLR 53.6 32 44% 29.94 0.0
07 19:55 NW 6 10.00 Fair CLR 55.4 32 59.5 55.9 41% 29.94 0.0
07 19:35 NW 6 10.00 Fair CLR 57.2 30.2 36% 29.93 0.0
07 19:15 NW 9 10.00 Fair CLR 57.2 28.4 33% 29.94 0.0
07 18:55 NW 12 10.00 Fair CLR 57.2 30.2 36% 29.94 0.0
07 18:35 W 9 10.00 A Few Clouds FEW065 FEW080 57.2 30.2 36% 29.94 0.0
07 18:15 W 12 10.00 Partly Cloudy SCT065 SCT080 59 30.2 34% 29.94 0.0
07 17:56 W 12 G 22 10.00 A Few Clouds FEW065 59 30.2 34% 29.94 0.0
07 17:35 NW 13 10.00 A Few Clouds FEW065 59 30.2 34% 29.94 0.0
07 17:15 N 14 G 20 10.00 Partly Cloudy SCT065 59 30.2 34% 29.93 0.0
07 16:55 NW 10 G 23 10.00 Fair CLR 59 30.2 34% 29.94 0.0
07 16:35 NW 14 G 22 10.00 Partly Cloudy SCT065 59 30.2 34% 29.93 0.0
07 16:15 NW 14 G 21 10.00 Partly Cloudy SCT065 59 32 36% 29.93 0.0
07 15:55 NW 15 G 24 10.00 Fair CLR 59 32 36% 29.94 0.0
07 15:35 NW 22 G 26 10.00 A Few Clouds and Breezy FEW060 57.2 30.2 36% 29.94 0.0
07 15:15 NW 14 G 24 10.00 Fair CLR 57.2 32 39% 29.94 0.0
07 14:56 NW 18 G 25 10.00 Fair CLR 57.2 32 39% 29.95 0.0
07 14:35 W 10 G 24 10.00 Fair CLR 57.2 30.2 36% 29.94 0.0
07 14:15 NW 18 G 24 10.00 Fair CLR 57.2 32 39% 29.95 0.0
07 13:55 NW 15 G 22 10.00 Fair CLR 57.2 32 57.7 44.2 39% 29.95 0.0
07 13:35 NW 14 G 24 10.00 Fair CLR 55.4 30.2 38% 29.96 0.0
07 13:15 NW 16 G 23 10.00 Fair CLR 55.4 30.2 38% 29.96 0.0
07 12:55 NW 15 G 23 10.00 Fair CLR 55.4 32 41% 29.96 0.0
07 12:35 NW 14 G 21 10.00 Fair CLR 53.6 30.2 41% 29.97 0.0
07 12:15 W 15 G 22 10.00 Fair CLR 55.4 32 41% 29.97 0.0
07 11:55 W 18 G 23 10.00 Fair CLR 53.6 33.8 47% 29.97 0.0
07 11:35 W 14 G 18 10.00 Fair CLR 53.6 33.8 47% 29.97 0.0
07 11:15 W 13 G 17 10.00 Fair CLR 53.6 33.8 47% 29.97 0.0
07 10:55 NW 12 G 18 10.00 Fair CLR 51.8 33.8 50% 29.96 0.0
07 10:35 NW 12 10.00 Fair CLR 51.8 32 47% 29.97 0.0
07 10:15 NW 12 10.00 Fair CLR 51.8 33.8 50% 29.97 0.0
07 09:55 NW 9 10.00 Fair CLR 50 33.8 54% 47 29.97 0.0
07 09:35 NW 12 10.00 Fair CLR 50 33.8 54% 46 29.97 0.0
07 09:15 NW 10 10.00 Fair CLR 48.2 33.8 58% 44 29.98 0.0
07 08:55 NW 12 10.00 Fair CLR 48.2 35.6 62% 44 29.97 0.0
07 08:35 NW 12 10.00 Fair CLR 46.4 37.4 71% 42 29.98 0.0
07 08:15 NW 10 10.00 Fair CLR 46.4 37.4 71% 42 29.98 0.0
07 07:55 NW 8 10.00 Fair CLR 44.6 37.4 44.4 39.6 76% 41 29.98 0.0
07 07:35 NW 8 10.00 Fair CLR 42.8 37.4 81% 39 29.97 0.0
07 07:15 W 7 10.00 Fair CLR 41 39.2 93% 37 29.97 0.0
07 06:55 W 7 10.00 Fair CLR 41 37.4 87% 37 29.96 0.0
07 06:35 W 5 10.00 Fair CLR 41 37.4 87% 38 29.95 0.0
07 06:15 W 7 10.00 Fair CLR 41 37.4 87% 37 29.96 0.0
07 05:55 W 6 10.00 Fair CLR 41 37.4 87% 38 29.95 0.0
07 05:35 W 6 10.00 Fair CLR 41 37.4 87% 38 29.95 0.0
07 05:15 W 7 10.00 Fair CLR 41 39.2 93% 37 29.95 0.0
07 04:55 W 5 10.00 Fair CLR 39.2 39.2 100% 36 29.95 0.0
07 04:35 W 5 10.00 Fair CLR 41 39.2 93% 38 29.95 0.0
07 04:15 W 6 10.00 Fair CLR 41 39.2 93% 38 29.95 0.0
07 03:55 W 3 10.00 Fair CLR 41 39.2 93% 29.95 0.0
07 03:15 SW 3 10.00 A Few Clouds FEW050 41 41 100% 29.95 0.0
07 02:55 SW 3 10.00 Fair CLR 42.8 41 93% 29.95 0.0
07 02:35 SW 5 9.00 Partly Cloudy SCT046 41 41 100% 38 29.95 0.0
07 02:15 SW 3 9.00 Overcast BKN046 OVC060 41 41 100% 29.95 0.0
07 01:55 W 2 10.00 Mostly Cloudy BKN060 41 41 54.3 41.7 100% 29.96 0.0
07 01:35 W 2 10.00 Mostly Cloudy FEW048 BKN060 42.8 41 93% 29.96 0.0
07 01:15 SW 3 10.00 A Few Clouds FEW048 FEW060 42.8 41 93% 29.97 0.0
07 00:55 SW 1 10.00 Fair CLR 42.8 41 93% 29.96 0.0
07 00:35 SW 2 10.00 Fair CLR 42.8 42.8 100% 29.96 0.0
07 00:15 S 2 10.00 Fair CLR 42.8 41 93% 29.96 0.0
06 23:55 NW 2 10.00 Fair CLR 44.6 41 87% 29.96 0.0
06 23:35 NW 2 10.00 Fair CLR 44.6 42.8 93% 29.97 0.0
06 23:15 NW 2 10.00 Fair CLR 44.6 42.8 93% 29.97 0.0
06 22:55 NW 3 10.00 Fair CLR 46.4 41 82% 29.97 0.0
06 22:35 W 2 10.00 Partly Cloudy SCT075 46.4 42.8 87% 29.97 0.0
06 22:15 W 1 10.00 Mostly Cloudy BKN075 48.2 41 76% 29.97 0.0
06 21:55 NW 2 10.00 Overcast OVC075 48.2 42.8 82% 29.96 0.0
06 21:35 N 5 10.00 Overcast OVC075 48.2 41 76% 47 29.94 0.0
06 21:15 N 6 10.00 Mostly Cloudy SCT075 BKN085 48.2 41 76% 46 29.95 0.0
06 20:55 NW 6 10.00 Overcast BKN075 OVC085 50 41 71% 48 29.95 0.0
06 20:35 N 6 10.00 Overcast OVC080 51.8 39.2 62% 29.94 0.0
06 20:15 N 7 10.00 Overcast OVC080 53.6 37.4 54% 29.93 0.0
06 19:55 N 10 10.00 Overcast OVC080 53.6 35.6 59.4 54 51% 29.92 0.0
06 19:35 N 13 10.00 Overcast OVC080 55.4 35.6 47% 29.91 0.0
06 19:15 N 10 10.00 Overcast OVC080 55.4 39.2 55% 29.92 0.0
06 18:55 NW 9 10.00 Overcast OVC080 55.4 37.4 51% 29.92 0.0
06 18:35 N 10 10.00 Overcast OVC070 55.4 39.2 55% 29.93 0.0
06 18:15 NW 12 10.00 Overcast OVC070 55.4 37.4 51% 29.94 0.0
06 17:55 NW 12 10.00 Overcast OVC070 55.4 37.4 51% 29.93 0.0
06 17:35 NW 13 10.00 Overcast OVC070 57.2 39.2 51% 29.92 0.0
06 17:15 NW 13 10.00 Overcast FEW049 OVC070 57.2 39.2 51% 29.91 0.0
06 16:55 NW 16 10.00 Overcast SCT049 OVC070 57.2 39.2 51% 29.9 0.0
06 16:35 N 12 10.00 Overcast FEW049 OVC070 59 39.2 48% 29.9 0.0
06 16:15 NW 8 10.00 Overcast OVC070 57.2 39.2 51% 29.9 0.0
06 15:55 N 12 10.00 Overcast SCT049 OVC070 59 39.2 48% 29.9 0.0
06 15:35 NW 12 10.00 Overcast FEW047 OVC070 59 41 51% 29.9 0.0
06 15:15 N 10 G 21 10.00 Mostly Cloudy FEW044 SCT080 BKN110 59 39.2 48% 29.9 0.0
06 14:55 NW 7 G 16 10.00 Overcast FEW044 OVC080 59 41 51% 29.89 0.0
06 14:35 N 9 G 20 10.00 Mostly Cloudy FEW044 BKN080 59 41 51% 29.9 0.0
06 14:15 NW 12 G 18 10.00 Mostly Cloudy BKN080 59 41 51% 29.9 0.0
06 13:55 N 7 10.00 A Few Clouds FEW095 57.2 41 57.7 46.2 55% 29.91 0.0
06 13:35 N 9 G 17 10.00 Mostly Cloudy BKN085 57.2 41 55% 29.91 0.0
06 13:15 N 9 10.00 Overcast OVC085 55.4 41 59% 29.91 0.0
06 12:55 N 8 10.00 Partly Cloudy SCT085 SCT100 55.4 41 59% 29.92 0.0
06 12:35 Vrbl 7 10.00 Partly Cloudy SCT085 55.4 41 59% 29.9 0.0
06 12:15 N 10 G 17 10.00 A Few Clouds FEW085 55.4 41 59% 29.92 0.0
06 11:55 NW 13 G 16 10.00 Mostly Cloudy BKN049 53.6 41 63% 29.91 0.0
06 11:35 N 8 10.00 Overcast OVC049 53.6 41 63% 29.9 0.0
06 11:15 N 14 10.00 Overcast OVC049 51.8 42.8 72% 29.89 0.0
06 10:55 N 12 10.00 Overcast OVC047 51.8 42.8 72% 29.88 0.0
06 10:35 N 10 10.00 Overcast OVC045 51.8 42.8 72% 29.89 0.0
06 10:15 N 12 10.00 Overcast OVC041 50 42.8 76% 46 29.88 0.0
06 09:55 N 12 10.00 Overcast OVC041 50 42.8 76% 46 29.87 0.0
06 09:35 N 12 10.00 Overcast OVC037 48.2 42.8 82% 44 29.86 0.0
06 09:15 N 13 G 21 10.00 Overcast SCT013 OVC035 48.2 42.8 82% 43 29.86 0.0
06 08:55 N 13 10.00 Overcast FEW013 OVC031 48.2 44.6 87% 43 29.85 0.0
06 08:35 N 10 10.00 Overcast OVC029 46.4 44.6 93% 42 29.84 0.0
06 08:15 N 12 10.00 Overcast FEW010 OVC027 46.4 44.6 93% 42 29.83 0.0
06 07:55 N 10 10.00 Overcast SCT010 OVC027 46.4 44.6 51.1 45.7 93% 42 29.82 0.0
06 07:35 N 13 9.00 Overcast OVC008 46.4 44.6 93% 41 29.82 0.0
06 06:55 N 8 10.00 Overcast OVC008 46.4 44.6 93% 43 29.79 0.0 0.01
06 06:35 N 12 2.00 Light Rain Fog/Mist OVC008 46.4 44.6 93% 42 29.77 0.0
06 06:15 N 10 10.00 Overcast BKN008 OVC025 46.4 44.6 93% 42 29.78 0.0
06 05:55 N 13 10.00 Overcast OVC008 46.4 44.6 93% 41 29.78 0.0
06 05:35 N 13 G 21 10.00 Light Rain OVC008 46.4 44.6 93% 41 29.76 0.0
06 05:15 N 15 10.00 Light Rain OVC008 46.4 44.6 93% 41 29.77 0.0
06 04:55 N 16 10.00 Overcast OVC008 46.4 46.4 100% 40 29.76 0.0 0.04
06 04:35 N 16 5.00 Light Rain Fog/Mist OVC008 46.4 46.4 100% 40 29.74 0.0
06 04:15 N 16 3.00 Light Rain Fog/Mist BKN008 OVC011 46.4 46.4 100% 40 29.75 0.0
06 03:55 N 17 3.00 Light Rain Fog/Mist OVC008 46.4 46.4 100% 40 29.74 0.0 0.04
06 03:35 N 15 7.00 Light Rain Fog/Mist OVC008 46.4 46.4 100% 41 29.74 0.0
06 03:15 N 16 5.00 Light Rain Fog/Mist OVC006 46.4 46.4 100% 40 29.72 0.0
06 02:55 N 14 3.00 Light Rain Fog/Mist OVC006 48.2 46.4 94% 43 29.73 0.0 0.14
06 02:35 N 18 1.75 Light Rain Fog/Mist OVC004 48.2 48.2 100% 42 29.73 0.0
06 02:15 N 17 2.00 Light Rain Fog/Mist OVC004 50 50 100% 45 29.73 0.0
06 01:55 N 14 1.25 Rain Fog/Mist OVC004 50 50 60.8 51.1 100% 45 29.73 0.0 0.19
06 01:15 N 10 0.75 Rain Fog/Mist BKN004 OVC007 55.4 53.6 94% 29.73 0.0
06 00:55 Vrbl 2 1.75 Light Rain Fog/Mist SCT022 OVC030 57.2 57.2 100% 29.74 0.0 0.01
06 00:35 S 2 8.00 Overcast OVC035 57.2 57.2 100% 29.73 0.0
06 00:15 S 3 7.00 Overcast OVC038 57.2 57.2 100% 29.73 0.0
05 23:55 SW 5 9.00 Overcast SCT040 BKN050 OVC070 57.2 57.2 100% 29.74 0.0 0.02
05 23:35 SW 7 3.00 Light Drizzle Fog/Mist FEW036 SCT041 OVC049 57.2 57.2 100% 29.74 0.0
05 23:15 SW 8 4.00 Light Rain Fog/Mist FEW031 OVC050 57.2 57.2 100% 29.76 0.0
05 22:55 SW 9 3.00 Light Rain Fog/Mist SCT036 BKN048 OVC055 57.2 57.2 100% 29.77 0.0 0.06
05 22:35 SW 10 6.00 Light Drizzle Fog/Mist OVC037 59 57.2 94% 29.77 0.0
05 22:15 SW 7 3.00 Light Rain Fog/Mist BKN037 OVC044 59 57.2 94% 29.77 0.0
05 21:55 SW 7 2.00 Light Rain Fog/Mist FEW017 FEW034 OVC044 59 57.2 94% 29.77 0.0 0.07
05 21:35 SW 9 4.00 Light Rain Fog/Mist OVC046 59 55.4 88% 29.76 0.0
05 21:15 SW 9 5.00 Light Rain Fog/Mist BKN046 OVC055 59 57.2 94% 29.76 0.0
05 20:55 S 10 6.00 Light Rain Fog/Mist OVC065 60.8 57.2 88% 29.75 0.0 0.01
05 20:35 S 10 10.00 Overcast OVC065 60.8 57.2 88% 29.75 0.0
05 20:15 SW 8 10.00 Overcast OVC065 60.8 57.2 88% 29.75 0.0
05 19:55 S 9 10.00 Overcast FEW044 OVC065 60.8 57.2 70.9 60.1 88% 29.74 0.0
05 19:35 SW 14 G 18 10.00 Light Rain SCT037 SCT045 OVC065 60.8 59 94% 29.76 0.0
05 19:15 SW 12 G 18 10.00 Light Rain SCT041 OVC065 60.8 59 94% 29.77 0.0
05 18:55 SW 13 G 16 8.00 Light Rain FEW042 SCT065 OVC085 60.8 59 94% 29.77 0.0 0.01
05 18:35 SW 10 10.00 Light Rain FEW060 BKN085 60.8 59 94% 29.78 0.0
05 18:15 SW 12 4.00 Light Rain Fog/Mist FEW060 SCT080 60.8 59 94% 29.77 0.0
05 17:55 SW 12 3.00 Light Rain Fog/Mist FEW004 SCT042 SCT080 60.8 59 94% 29.79 0.0 0.09
05 17:35 SW 13 G 21 0.50 Heavy Rain Fog BKN005 BKN029 OVC045 60.8 59 94% 29.79 0.0
05 17:15 SW 17 G 29 10.00 Light Rain BKN047 OVC065 68 51.8 56% 29.76 0.0
05 16:55 SW 21 G 31 10.00 Thunderstorm in Vicinity and Breezy SCT044 BKN065 BKN080 69.8 51.8 53% 29.76 0.0
05 16:35 SW 18 G 33 10.00 Mostly Cloudy BKN044 BKN055 69.8 51.8 53% 29.76 0.0
05 16:15 SW 23 G 29 10.00 Mostly Cloudy and Breezy BKN046 BKN055 69.8 51.8 53% 29.76 0.0
05 15:35 SW 22 G 30 10.00 A Few Clouds and Breezy FEW044 FEW055 69.8 51.8 53% 29.77 0.0
05 15:15 SW 23 G 30 10.00 Partly Cloudy and Breezy FEW046 SCT055 69.8 51.8 53% 29.78 0.0
05 14:55 SW 21 G 26 10.00 Mostly Cloudy and Breezy SCT046 BKN055 BKN065 69.8 51.8 53% 29.79 0.0
05 14:35 SW 18 G 26 10.00 Overcast FEW044 OVC050 69.8 51.8 53% 29.8 0.0
05 14:15 SW 22 G 31 10.00 Overcast and Breezy OVC050 69.8 51.8 53% 29.8 0.0
05 13:55 SW 20 G 31 10.00 Overcast OVC050 69.8 51.8 71.2 58.5 53% 29.8 0.0
05 13:35 SW 15 G 22 10.00 Overcast OVC050 68 51.8 56% 29.8 0.0
05 13:15 SW 20 G 30 10.00 Overcast OVC050 68 50 53% 29.81 0.0
05 12:55 SW 21 G 31 10.00 Overcast and Breezy BKN050 OVC060 68 51.8 56% 29.81 0.0
05 12:35 SW 21 G 31 10.00 Mostly Cloudy and Breezy BKN060 69.8 51.8 53% 29.8 0.0
05 12:15 SW 18 G 29 10.00 Fair CLR 71.6 51.8 50% 29.8 0.0
05 11:55 SW 20 G 29 10.00 Fair CLR 69.8 51.8 53% 29.8 0.0
05 11:35 SW 22 G 30 10.00 Fair and Breezy CLR 68 51.8 56% 29.81 0.0
05 11:15 SW 16 10.00 Fair CLR 69.8 51.8 53% 29.8 0.0
05 10:55 SW 18 G 23 10.00 Fair CLR 68 51.8 56% 29.8 0.0
05 10:35 SW 15 G 25 10.00 Fair CLR 68 51.8 56% 29.78 0.0
05 10:15 S 17 10.00 Fair CLR 66.2 51.8 60% 29.77 0.0
05 09:55 SW 15 G 18 10.00 Fair CLR 62.6 51.8 68% 29.78 0.0
05 09:35 SW 16 G 21 10.00 Fair CLR 62.6 53.6 73% 29.78 0.0
05 09:15 SW 14 10.00 Fair CLR 60.8 53.6 77% 29.79 0.0
05 08:55 SW 13 10.00 Light Rain FEW060 60.8 53.6 77% 29.79 0.0
05 08:35 SW 10 G 16 10.00 A Few Clouds FEW085 60.8 53.6 77% 29.79 0.0
05 08:15 SW 10 10.00 Mostly Cloudy BKN095 59 53.6 82% 29.79 0.0
05 07:55 SW 10 10.00 Light Rain FEW046 SCT075 SCT095 59 53.6 64.9 58.5 82% 29.77 0.0
05 07:35 SW 8 10.00 A Few Clouds FEW046 FEW060 59 53.6 82% 29.78 0.0
05 07:15 W 8 10.00 Fair CLR 59 51.8 77% 29.77 0.0
05 06:55 W 8 10.00 Partly Cloudy FEW050 SCT085 59 50 72% 29.78 0.0
05 06:35 W 7 10.00 Overcast OVC050 59 50 72% 29.78 0.0
05 06:15 W 8 10.00 Overcast OVC060 60.8 50 68% 29.77 0.0
05 05:55 W 6 10.00 Overcast FEW048 OVC060 60.8 50 68% 29.77 0.0
05 05:35 SW 7 10.00 Overcast FEW046 FEW065 OVC070 62.6 50 64% 29.77 0.0
05 05:15 SW 9 G 16 10.00 Overcast OVC065 62.6 48.2 60% 29.77 0.0
05 04:55 SW 13 G 18 10.00 Overcast OVC065 62.6 50 64% 29.76 0.0
05 04:35 SW 15 G 24 10.00 Overcast OVC065 64.4 48.2 56% 29.74 0.0
05 04:15 SW 17 G 23 10.00 Overcast FEW048 FEW055 OVC070 62.6 50 64% 29.74 0.0
05 03:55 SW 17 G 26 10.00 Overcast OVC070 64.4 48.2 56% 29.74 0.0
05 03:35 SW 18 G 25 10.00 Mostly Cloudy SCT070 BKN100 64.4 48.2 56% 29.73 0.0
05 03:15 SW 17 G 23 10.00 Partly Cloudy SCT100 64.4 48.2 56% 29.73 0.0
05 02:55 SW 20 G 24 10.00 Mostly Cloudy BKN100 64.4 48.2 56% 29.73 0.0
05 02:35 SW 18 G 25 10.00 Mostly Cloudy BKN100 64.4 50 60% 29.73 0.0
05 02:15 SW 16 10.00 Mostly Cloudy BKN100 64.4 50 60% 29.72 0.0
05 01:55 SW 16 G 23 10.00 Partly Cloudy SCT100 64.4 50 69.6 64.2 60% 29.72 0.0
05 01:35 SW 15 10.00 Fair CLR 64.4 50 60% 29.72 0.0
05 01:15 SW 17 G 23 10.00 Partly Cloudy SCT110 66.2 50 56% 29.73 0.0
05 00:55 SW 15 G 23 10.00 Mostly Cloudy BKN110 66.2 50 56% 29.73 0.0
05 00:35 SW 14 10.00 Mostly Cloudy BKN120 66.2 50 56% 29.73 0.0
05 00:16 SW 14 10.00 Mostly Cloudy BKN120 66.2 50 56% 29.73 0.0
04 23:55 SW 13 10.00 Mostly Cloudy BKN120 66.2 50 56% 29.74 0.0
04 23:35 S 10 10.00 Overcast OVC120 66.2 50 56% 29.73 0.0
04 23:15 S 12 10.00 Partly Cloudy SCT110 64.4 50 60% 29.73 0.0
04 22:56 S 10 G 17 10.00 Fair CLR 64.4 50 60% 29.73 0.0
04 22:35 S 10 10.00 Fair CLR 64.4 50 60% 29.72 0.0
04 22:15 S 9 10.00 Fair CLR 64.4 50 60% 29.72 0.0
04 21:55 S 9 10.00 Partly Cloudy SCT120 64.4 50 60% 29.72 0.0
04 21:35 S 9 10.00 Fair CLR 66.2 50 56% 29.71 0.0
Date Time (edt) Wind (mph) Vis. (mi.) Weather Sky Cond. Air Dwpt Max. Min. Relative Humidity Wind Chill (°F) Heat Index (°F) altimeter (in) sea level (mb) 1 hr 3 hr 6 hr
6 hour
Temperature (ºF) Pressure Precipitation (in)